sensor_id;sensor_type;location;lat;lon;timestamp;pressure;altitude;pressure_sealevel;temperature;humidity
29169;BME280;16219;42.864;23.360;2023-02-13T00:00:21;97633.88;;;-1.38;100.00
29169;BME280;16219;42.864;23.360;2023-02-13T00:02:49;97631.72;;;-1.35;100.00
29169;BME280;16219;42.864;23.360;2023-02-13T00:05:16;97632.44;;;-1.41;100.00
29169;BME280;16219;42.864;23.360;2023-02-13T00:07:43;97633.09;;;-1.32;100.00
29169;BME280;16219;42.864;23.360;2023-02-13T00:10:11;97640.13;;;-1.26;100.00
29169;BME280;16219;42.864;23.360;2023-02-13T00:12:38;97635.94;;;-1.27;100.00
29169;BME280;16219;42.864;23.360;2023-02-13T00:15:07;97639.34;;;-1.27;100.00
29169;BME280;16219;42.864;23.360;2023-02-13T00:17:36;97637.16;;;-1.23;100.00
29169;BME280;16219;42.864;23.360;2023-02-13T00:20:04;97637.63;;;-1.13;100.00
29169;BME280;16219;42.864;23.360;2023-02-13T00:22:34;97633.97;;;-1.25;100.00
29169;BME280;16219;42.864;23.360;2023-02-13T00:25:02;97624.75;;;-1.34;100.00
29169;BME280;16219;42.864;23.360;2023-02-13T00:27:31;97640.34;;;-1.21;100.00
29169;BME280;16219;42.864;23.360;2023-02-13T00:29:58;97647.34;;;-1.15;100.00
29169;BME280;16219;42.864;23.360;2023-02-13T00:32:25;97643.56;;;-1.19;100.00
29169;BME280;16219;42.864;23.360;2023-02-13T00:34:54;97641.22;;;-1.14;100.00
29169;BME280;16219;42.864;23.360;2023-02-13T00:37:22;97633.59;;;-1.22;100.00
29169;BME280;16219;42.864;23.360;2023-02-13T00:39:51;97653.16;;;-1.13;100.00
29169;BME280;16219;42.864;23.360;2023-02-13T00:42:18;97634.19;;;-1.20;100.00
29169;BME280;16219;42.864;23.360;2023-02-13T00:44:50;97645.25;;;-1.05;100.00
29169;BME280;16219;42.864;23.360;2023-02-13T00:47:17;97648.44;;;-1.03;100.00
29169;BME280;16219;42.864;23.360;2023-02-13T00:49:44;97648.84;;;-1.06;100.00
29169;BME280;16219;42.864;23.360;2023-02-13T00:52:11;97650.78;;;-1.08;100.00
29169;BME280;16219;42.864;23.360;2023-02-13T00:54:38;97654.59;;;-1.04;100.00
29169;BME280;16219;42.864;23.360;2023-02-13T00:57:05;97655.19;;;-1.08;100.00
29169;BME280;16219;42.864;23.360;2023-02-13T00:59:33;97654.00;;;-1.06;100.00
29169;BME280;16219;42.864;23.360;2023-02-13T01:02:01;97630.69;;;-1.06;100.00
29169;BME280;16219;42.864;23.360;2023-02-13T01:04:30;97648.06;;;-0.99;100.00
29169;BME280;16219;42.864;23.360;2023-02-13T01:06:57;97656.63;;;-0.99;100.00
29169;BME280;16219;42.864;23.360;2023-02-13T01:09:24;97653.66;;;-0.96;100.00
29169;BME280;16219;42.864;23.360;2023-02-13T01:11:51;97653.47;;;-0.94;100.00
29169;BME280;16219;42.864;23.360;2023-02-13T01:14:18;97664.63;;;-0.94;100.00
29169;BME280;16219;42.864;23.360;2023-02-13T01:16:46;97662.03;;;-0.94;100.00
29169;BME280;16219;42.864;23.360;2023-02-13T01:19:15;97660.06;;;-0.92;100.00
29169;BME280;16219;42.864;23.360;2023-02-13T01:21:42;97640.28;;;-0.99;100.00
29169;BME280;16219;42.864;23.360;2023-02-13T01:24:09;97656.06;;;-0.94;100.00
29169;BME280;16219;42.864;23.360;2023-02-13T01:26:36;97661.06;;;-0.93;100.00
29169;BME280;16219;42.864;23.360;2023-02-13T01:29:03;97653.69;;;-0.89;100.00
29169;BME280;16219;42.864;23.360;2023-02-13T01:31:31;97662.66;;;-0.85;100.00
29169;BME280;16219;42.864;23.360;2023-02-13T01:33:59;97659.50;;;-0.87;100.00
29169;BME280;16219;42.864;23.360;2023-02-13T01:36:27;97608.28;;;-1.20;100.00
29169;BME280;16219;42.864;23.360;2023-02-13T01:38:56;97659.50;;;-0.87;100.00
29169;BME280;16219;42.864;23.360;2023-02-13T01:41:25;97663.66;;;-0.86;100.00
29169;BME280;16219;42.864;23.360;2023-02-13T01:43:54;97655.47;;;-0.90;100.00
29169;BME280;16219;42.864;23.360;2023-02-13T01:46:25;97634.88;;;-1.05;100.00
29169;BME280;16219;42.864;23.360;2023-02-13T01:48:58;97651.66;;;-1.01;100.00
29169;BME280;16219;42.864;23.360;2023-02-13T01:51:32;97656.28;;;-0.89;100.00
29169;BME280;16219;42.864;23.360;2023-02-13T01:54:03;97659.69;;;-0.89;100.00
29169;BME280;16219;42.864;23.360;2023-02-13T01:56:34;97640.91;;;-0.97;100.00
29169;BME280;16219;42.864;23.360;2023-02-13T01:59:06;97656.28;;;-0.89;100.00
29169;BME280;16219;42.864;23.360;2023-02-13T02:01:36;97665.25;;;-0.85;100.00
29169;BME280;16219;42.864;23.360;2023-02-13T02:04:07;97647.69;;;-0.90;100.00
29169;BME280;16219;42.864;23.360;2023-02-13T02:06:40;97652.88;;;-0.90;100.00
29169;BME280;16219;42.864;23.360;2023-02-13T02:09:11;97660.84;;;-0.91;100.00
29169;BME280;16219;42.864;23.360;2023-02-13T02:11:45;97655.25;;;-0.95;100.00
29169;BME280;16219;42.864;23.360;2023-02-13T02:14:14;97658.47;;;-0.93;100.00
29169;BME280;16219;42.864;23.360;2023-02-13T02:16:41;97664.44;;;-0.92;100.00
29169;BME280;16219;42.864;23.360;2023-02-13T02:19:15;97664.44;;;-0.92;100.00
29169;BME280;16219;42.864;23.360;2023-02-13T02:22:09;97667.84;;;-0.92;100.00
29169;BME280;16219;42.864;23.360;2023-02-13T02:28:17;97670.38;;;-0.98;100.00
29169;BME280;16219;42.864;23.360;2023-02-13T02:31:19;97669.78;;;-1.01;100.00
29169;BME280;16219;42.864;23.360;2023-02-13T02:34:02;97674.75;;;-0.99;100.00
29169;BME280;16219;42.864;23.360;2023-02-13T02:36:51;97683.31;;;-0.98;100.00
29169;BME280;16219;42.864;23.360;2023-02-13T02:39:35;97667.69;;;-1.12;100.00
29169;BME280;16219;42.864;23.360;2023-02-13T02:42:13;97693.88;;;-1.00;100.00
29169;BME280;16219;42.864;23.360;2023-02-13T02:44:52;97680.94;;;-1.00;100.00
29169;BME280;16219;42.864;23.360;2023-02-13T02:47:24;97693.13;;;-0.94;100.00
29169;BME280;16219;42.864;23.360;2023-02-13T02:50:25;97695.84;;;-1.02;100.00
29169;BME280;16219;42.864;23.360;2023-02-13T02:53:16;97691.53;;;-0.95;100.00
29169;BME280;16219;42.864;23.360;2023-02-13T02:55:48;97694.75;;;-0.93;100.00
29169;BME280;16219;42.864;23.360;2023-02-13T02:58:20;97689.00;;;-0.88;100.00
29169;BME280;16219;42.864;23.360;2023-02-13T03:01:10;97688.00;;;-0.87;100.00
29169;BME280;16219;42.864;23.360;2023-02-13T03:03:58;97681.22;;;-0.88;100.00
29169;BME280;16219;42.864;23.360;2023-02-13T03:06:46;97683.97;;;-0.90;100.00
29169;BME280;16219;42.864;23.360;2023-02-13T03:09:19;97690.56;;;-0.87;100.00
29169;BME280;16219;42.864;23.360;2023-02-13T03:12:05;97686.00;;;-0.85;100.00
29169;BME280;16219;42.864;23.360;2023-02-13T03:14:51;97692.16;;;-0.86;100.00
29169;BME280;16219;42.864;23.360;2023-02-13T03:17:18;97683.59;;;-0.93;100.00
29169;BME280;16219;42.864;23.360;2023-02-13T03:20:14;97694.97;;;-0.88;100.00
29169;BME280;16219;42.864;23.360;2023-02-13T03:23:23;97693.94;;;-0.93;100.00
29169;BME280;16219;42.864;23.360;2023-02-13T03:26:03;97684.19;;;-0.91;100.00
29169;BME280;16219;42.864;23.360;2023-02-13T03:28:35;97685.53;;;-0.95;100.00
29169;BME280;16219;42.864;23.360;2023-02-13T03:31:28;97676.19;;;-0.96;100.00
29169;BME280;16219;42.864;23.360;2023-02-13T03:34:02;97684.94;;;-0.97;100.00
29169;BME280;16219;42.864;23.360;2023-02-13T03:36:40;97685.69;;;-1.04;100.00
29169;BME280;16219;42.864;23.360;2023-02-13T03:39:40;97682.00;;;-1.16;100.00
29169;BME280;16219;42.864;23.360;2023-02-13T03:42:13;97678.59;;;-1.23;100.00
29169;BME280;16219;42.864;23.360;2023-02-13T03:44:49;97692.78;;;-1.19;100.00
29169;BME280;16219;42.864;23.360;2023-02-13T03:47:38;97699.84;;;-1.28;100.00
29169;BME280;16219;42.864;23.360;2023-02-13T03:50:08;97698.78;;;-1.40;100.00
29169;BME280;16219;42.864;23.360;2023-02-13T03:52:40;97702.09;;;-1.46;100.00
29169;BME280;16219;42.864;23.360;2023-02-13T03:55:13;97699.41;;;-1.59;100.00
29169;BME280;16219;42.864;23.360;2023-02-13T03:58:02;97706.81;;;-1.56;100.00
29169;BME280;16219;42.864;23.360;2023-02-13T04:00:50;97710.56;;;-1.59;100.00
29169;BME280;16219;42.864;23.360;2023-02-13T04:03:24;97684.31;;;-1.77;100.00
29169;BME280;16219;42.864;23.360;2023-02-13T04:05:57;97708.09;;;-1.67;100.00
29169;BME280;16219;42.864;23.360;2023-02-13T04:08:27;97718.81;;;-1.70;100.00
29169;BME280;16219;42.864;23.360;2023-02-13T04:11:01;97709.19;;;-1.76;100.00
29169;BME280;16219;42.864;23.360;2023-02-13T04:13:33;97718.63;;;-1.90;100.00
29169;BME280;16219;42.864;23.360;2023-02-13T04:16:06;97690.84;;;-2.03;100.00
29169;BME280;16219;42.864;23.360;2023-02-13T04:18:37;97721.00;;;-1.88;100.00
29169;BME280;16219;42.864;23.360;2023-02-13T04:21:06;97704.25;;;-1.92;100.00
29169;BME280;16219;42.864;23.360;2023-02-13T04:23:33;97710.19;;;-1.98;100.00
29169;BME280;16219;42.864;23.360;2023-02-13T04:26:05;97702.41;;;-1.98;100.00
29169;BME280;16219;42.864;23.360;2023-02-13T04:28:33;97702.78;;;-2.02;100.00
29169;BME280;16219;42.864;23.360;2023-02-13T04:31:00;97700.53;;;-2.05;100.00
29169;BME280;16219;42.864;23.360;2023-02-13T04:33:27;97690.88;;;-2.17;100.00
29169;BME280;16219;42.864;23.360;2023-02-13T04:35:54;97689.63;;;-2.21;100.00
29169;BME280;16219;42.864;23.360;2023-02-13T04:38:21;97706.81;;;-2.14;100.00
29169;BME280;16219;42.864;23.360;2023-02-13T04:40:48;97712.09;;;-2.22;100.00
29169;BME280;16219;42.864;23.360;2023-02-13T04:43:17;97707.91;;;-2.23;100.00
29169;BME280;16219;42.864;23.360;2023-02-13T04:45:47;97722.44;;;-2.22;100.00
29169;BME280;16219;42.864;23.360;2023-02-13T04:48:14;97713.88;;;-2.22;100.00
29169;BME280;16219;42.864;23.360;2023-02-13T04:50:41;97724.16;;;-2.29;100.00
29169;BME280;16219;42.864;23.360;2023-02-13T04:53:08;97722.81;;;-2.40;100.00
29169;BME280;16219;42.864;23.360;2023-02-13T04:55:35;97721.56;;;-2.29;100.00
29169;BME280;16219;42.864;23.360;2023-02-13T04:58:02;97695.94;;;-2.45;100.00
29169;BME280;16219;42.864;23.360;2023-02-13T05:00:30;97730.75;;;-2.41;100.00
29169;BME280;16219;42.864;23.360;2023-02-13T05:03:01;97729.59;;;-2.39;100.00
29169;BME280;16219;42.864;23.360;2023-02-13T05:05:30;97723.81;;;-2.41;100.00
29169;BME280;16219;42.864;23.360;2023-02-13T05:07:56;97729.13;;;-2.42;100.00
29169;BME280;16219;42.864;23.360;2023-02-13T05:10:23;97723.91;;;-2.49;100.00
29169;BME280;16219;42.864;23.360;2023-02-13T05:12:51;97730.84;;;-2.49;100.00
29169;BME280;16219;42.864;23.360;2023-02-13T05:15:18;97705.81;;;-2.79;100.00
29169;BME280;16219;42.864;23.360;2023-02-13T05:17:46;97733.53;;;-2.58;100.00
29169;BME280;16219;42.864;23.360;2023-02-13T05:20:14;97737.44;;;-2.62;100.00
29169;BME280;16219;42.864;23.360;2023-02-13T05:22:44;97736.47;;;-2.61;100.00
29169;BME280;16219;42.864;23.360;2023-02-13T05:25:29;97736.81;;;-2.64;100.00
29169;BME280;16219;42.864;23.360;2023-02-13T05:27:55;97734.41;;;-2.65;100.00
29169;BME280;16219;42.864;23.360;2023-02-13T05:30:23;97735.31;;;-2.58;100.00
29169;BME280;16219;42.864;23.360;2023-02-13T05:32:51;97738.06;;;-2.60;100.00
29169;BME280;16219;42.864;23.360;2023-02-13T05:35:20;97725.16;;;-2.74;100.00
29169;BME280;16219;42.864;23.360;2023-02-13T05:37:47;97732.81;;;-2.66;100.00
29169;BME280;16219;42.864;23.360;2023-02-13T05:40:14;97746.78;;;-2.61;100.00
29169;BME280;16219;42.864;23.360;2023-02-13T05:42:42;97750.97;;;-2.60;100.00
29169;BME280;16219;42.864;23.360;2023-02-13T05:45:09;97727.09;;;-2.77;100.00
29169;BME280;16219;42.864;23.360;2023-02-13T05:47:36;97748.13;;;-2.65;100.00
29169;BME280;16219;42.864;23.360;2023-02-13T05:50:07;97753.03;;;-2.70;100.00
29169;BME280;16219;42.864;23.360;2023-02-13T05:52:34;97760.34;;;-2.59;100.00
29169;BME280;16219;42.864;23.360;2023-02-13T05:55:00;97763.63;;;-2.65;100.00
29169;BME280;16219;42.864;23.360;2023-02-13T05:57:28;97756.53;;;-2.63;100.00
29169;BME280;16219;42.864;23.360;2023-02-13T05:59:55;97758.91;;;-2.61;100.00
29169;BME280;16219;42.864;23.360;2023-02-13T06:02:22;97764.34;;;-2.56;100.00
29169;BME280;16219;42.864;23.360;2023-02-13T06:04:49;97769.97;;;-2.53;100.00
29169;BME280;16219;42.864;23.360;2023-02-13T06:07:17;97766.31;;;-2.58;100.00
29169;BME280;16219;42.864;23.360;2023-02-13T06:09:44;97766.66;;;-2.46;100.00
29169;BME280;16219;42.864;23.360;2023-02-13T06:12:11;97767.28;;;-2.44;100.00
29169;BME280;16219;42.864;23.360;2023-02-13T06:14:38;97773.25;;;-2.44;100.00
29169;BME280;16219;42.864;23.360;2023-02-13T06:17:05;97777.91;;;-2.39;100.00
29169;BME280;16219;42.864;23.360;2023-02-13T06:19:32;97775.56;;;-2.34;100.00
29169;BME280;16219;42.864;23.360;2023-02-13T06:21:59;97775.66;;;-2.28;100.00
29169;BME280;16219;42.864;23.360;2023-02-13T06:24:28;97775.13;;;-2.23;100.00
29169;BME280;16219;42.864;23.360;2023-02-13T06:26:55;97773.25;;;-2.14;100.00
29169;BME280;16219;42.864;23.360;2023-02-13T06:29:22;97782.94;;;-2.02;100.00
29169;BME280;16219;42.864;23.360;2023-02-13T06:31:49;97782.59;;;-1.98;100.00
29169;BME280;16219;42.864;23.360;2023-02-13T06:34:18;97781.84;;;-1.92;100.00
29169;BME280;16219;42.864;23.360;2023-02-13T06:36:47;97780.34;;;-1.87;100.00
29169;BME280;16219;42.864;23.360;2023-02-13T06:39:15;97773.38;;;-1.86;100.00
29169;BME280;16219;42.864;23.360;2023-02-13T06:41:43;97782.88;;;-1.72;100.00
29169;BME280;16219;42.864;23.360;2023-02-13T06:44:10;97780.97;;;-1.63;100.00
29169;BME280;16219;42.864;23.360;2023-02-13T06:46:37;97784.06;;;-1.53;100.00
29169;BME280;16219;42.864;23.360;2023-02-13T06:49:04;97781.56;;;-1.46;100.00
29169;BME280;16219;42.864;23.360;2023-02-13T06:51:31;97785.25;;;-1.34;100.00
29169;BME280;16219;42.864;23.360;2023-02-13T06:53:58;97785.72;;;-1.24;100.00
29169;BME280;16219;42.864;23.360;2023-02-13T06:56:25;97794.38;;;-1.17;100.00
29169;BME280;16219;42.864;23.360;2023-02-13T06:58:53;97792.25;;;-1.07;100.00
29169;BME280;16219;42.864;23.360;2023-02-13T07:01:20;97780.59;;;-0.96;100.00
29169;BME280;16219;42.864;23.360;2023-02-13T07:03:47;97785.28;;;-0.85;100.00
29169;BME280;16219;42.864;23.360;2023-02-13T07:06:17;97786.91;;;-0.77;100.00
29169;BME280;16219;42.864;23.360;2023-02-13T07:08:44;97792.75;;;-0.68;100.00
29169;BME280;16219;42.864;23.360;2023-02-13T07:11:16;97794.03;;;-0.58;100.00
29169;BME280;16219;42.864;23.360;2023-02-13T07:13:44;97768.84;;;-0.64;100.00
29169;BME280;16219;42.864;23.360;2023-02-13T07:16:12;97797.91;;;-0.40;100.00
29169;BME280;16219;42.864;23.360;2023-02-13T07:18:39;97786.41;;;-0.31;100.00
29169;BME280;16219;42.864;23.360;2023-02-13T07:21:06;97791.66;;;-0.18;100.00
29169;BME280;16219;42.864;23.360;2023-02-13T07:23:34;97791.88;;;-0.13;100.00
29169;BME280;16219;42.864;23.360;2023-02-13T07:26:01;97786.94;;;-0.08;100.00
29169;BME280;16219;42.864;23.360;2023-02-13T07:28:28;97769.16;;;-0.11;100.00
29169;BME280;16219;42.864;23.360;2023-02-13T07:30:56;97787.41;;;0.09;100.00
29169;BME280;16219;42.864;23.360;2023-02-13T07:33:24;97777.59;;;0.05;100.00
29169;BME280;16219;42.864;23.360;2023-02-13T07:35:51;97792.25;;;0.32;100.00
29169;BME280;16219;42.864;23.360;2023-02-13T07:38:19;97770.06;;;0.23;100.00
29169;BME280;16219;42.864;23.360;2023-02-13T07:40:46;97786.25;;;0.32;100.00
29169;BME280;16219;42.864;23.360;2023-02-13T07:43:13;97783.69;;;0.38;100.00
29169;BME280;16219;42.864;23.360;2023-02-13T07:45:40;97790.72;;;0.51;100.00
29169;BME280;16219;42.864;23.360;2023-02-13T07:48:07;97788.75;;;0.60;100.00
29169;BME280;16219;42.864;23.360;2023-02-13T07:50:35;97772.13;;;0.54;100.00
29169;BME280;16219;42.864;23.360;2023-02-13T07:53:03;97787.56;;;0.69;100.00
29169;BME280;16219;42.864;23.360;2023-02-13T07:55:29;97789.97;;;0.77;100.00
29169;BME280;16219;42.864;23.360;2023-02-13T07:57:59;97788.34;;;0.83;100.00
29169;BME280;16219;42.864;23.360;2023-02-13T08:00:26;97787.75;;;0.87;100.00
29169;BME280;16219;42.864;23.360;2023-02-13T08:02:53;97785.56;;;0.97;100.00
29169;BME280;16219;42.864;23.360;2023-02-13T08:05:20;97765.19;;;0.94;100.00
29169;BME280;16219;42.864;23.360;2023-02-13T08:07:49;97785.16;;;1.14;100.00
29169;BME280;16219;42.864;23.360;2023-02-13T08:10:16;97775.56;;;1.14;100.00
29169;BME280;16219;42.864;23.360;2023-02-13T08:13:01;97774.97;;;1.25;100.00
29169;BME280;16219;42.864;23.360;2023-02-13T08:15:28;97772.34;;;1.39;100.00
29169;BME280;16219;42.864;23.360;2023-02-13T08:17:55;97770.72;;;1.44;100.00
29169;BME280;16219;42.864;23.360;2023-02-13T08:20:22;97773.09;;;1.53;100.00
29169;BME280;16219;42.864;23.360;2023-02-13T08:22:51;97757.53;;;1.46;100.00
29169;BME280;16219;42.864;23.360;2023-02-13T08:25:18;97769.91;;;1.64;100.00
29169;BME280;16219;42.864;23.360;2023-02-13T08:27:45;97761.88;;;1.72;100.00
29169;BME280;16219;42.864;23.360;2023-02-13T08:30:13;97770.69;;;1.71;100.00
29169;BME280;16219;42.864;23.360;2023-02-13T08:32:40;97765.44;;;1.84;100.00
29169;BME280;16219;42.864;23.360;2023-02-13T08:35:07;97767.78;;;1.99;100.00
29169;BME280;16219;42.864;23.360;2023-02-13T08:37:37;97766.50;;;2.15;100.00
29169;BME280;16219;42.864;23.360;2023-02-13T08:40:07;97744.91;;;2.08;100.00
29169;BME280;16219;42.864;23.360;2023-02-13T08:42:35;97760.41;;;2.34;100.00
29169;BME280;16219;42.864;23.360;2023-02-13T08:45:02;97752.78;;;2.39;100.00
29169;BME280;16219;42.864;23.360;2023-02-13T08:47:30;97752.72;;;2.46;100.00
29169;BME280;16219;42.864;23.360;2023-02-13T08:49:58;97759.16;;;2.43;100.00
29169;BME280;16219;42.864;23.360;2023-02-13T08:52:25;97756.56;;;2.43;100.00
29169;BME280;16219;42.864;23.360;2023-02-13T08:54:52;97751.97;;;2.39;100.00
29169;BME280;16219;42.864;23.360;2023-02-13T08:57:21;97751.22;;;2.25;100.00
29169;BME280;16219;42.864;23.360;2023-02-13T08:59:48;97747.09;;;2.17;100.00
29169;BME280;16219;42.864;23.360;2023-02-13T09:02:15;97754.09;;;2.17;100.00
29169;BME280;16219;42.864;23.360;2023-02-13T09:04:42;97755.22;;;2.28;100.00
29169;BME280;16219;42.864;23.360;2023-02-13T09:07:09;97751.34;;;2.43;100.00
29169;BME280;16219;42.864;23.360;2023-02-13T09:09:37;97754.66;;;2.57;100.00
29169;BME280;16219;42.864;23.360;2023-02-13T09:12:04;97755.84;;;2.61;100.00
29169;BME280;16219;42.864;23.360;2023-02-13T09:14:33;97747.00;;;2.62;100.00
29169;BME280;16219;42.864;23.360;2023-02-13T09:17:00;97746.28;;;2.55;100.00
29169;BME280;16219;42.864;23.360;2023-02-13T09:19:27;97749.22;;;2.59;100.00
29169;BME280;16219;42.864;23.360;2023-02-13T09:21:54;97745.53;;;2.73;100.00
29169;BME280;16219;42.864;23.360;2023-02-13T09:24:21;97750.38;;;2.69;100.00
29169;BME280;16219;42.864;23.360;2023-02-13T09:26:48;97751.66;;;2.85;100.00
29169;BME280;16219;42.864;23.360;2023-02-13T09:29:15;97746.09;;;3.07;100.00
29169;BME280;16219;42.864;23.360;2023-02-13T09:31:43;97743.34;;;3.20;100.00
29169;BME280;16219;42.864;23.360;2023-02-13T09:34:10;97739.16;;;3.19;100.00
29169;BME280;16219;42.864;23.360;2023-02-13T09:36:37;97745.84;;;3.33;100.00
29169;BME280;16219;42.864;23.360;2023-02-13T09:39:04;97740.63;;;3.51;100.00
29169;BME280;16219;42.864;23.360;2023-02-13T09:41:35;97732.22;;;3.68;100.00
29169;BME280;16219;42.864;23.360;2023-02-13T09:44:06;97738.19;;;3.75;100.00
29169;BME280;16219;42.864;23.360;2023-02-13T09:47:00;97733.09;;;3.80;100.00
29169;BME280;16219;42.864;23.360;2023-02-13T09:49:34;97713.16;;;3.67;100.00
29169;BME280;16219;42.864;23.360;2023-02-13T09:52:03;97692.81;;;3.58;100.00
29169;BME280;16219;42.864;23.360;2023-02-13T09:54:30;97715.38;;;3.82;100.00
29169;BME280;16219;42.864;23.360;2023-02-13T09:57:00;97711.63;;;3.96;100.00
29169;BME280;16219;42.864;23.360;2023-02-13T09:59:38;97714.63;;;4.12;100.00
29169;BME280;16219;42.864;23.360;2023-02-13T10:02:22;97683.94;;;4.07;100.00
29169;BME280;16219;42.864;23.360;2023-02-13T10:04:59;97705.25;;;4.22;100.00
29169;BME280;16219;42.864;23.360;2023-02-13T10:07:38;97703.84;;;4.20;100.00
29169;BME280;16219;42.864;23.360;2023-02-13T10:10:16;97695.78;;;4.10;100.00
29169;BME280;16219;42.864;23.360;2023-02-13T10:13:00;97689.88;;;4.14;100.00
29169;BME280;16219;42.864;23.360;2023-02-13T10:15:37;97672.38;;;4.15;100.00
29169;BME280;16219;42.864;23.360;2023-02-13T10:18:11;97683.66;;;4.27;100.00
29169;BME280;16219;42.864;23.360;2023-02-13T10:20:44;97680.03;;;4.28;100.00
29169;BME280;16219;42.864;23.360;2023-02-13T10:23:19;97670.59;;;4.27;100.00
29169;BME280;16219;42.864;23.360;2023-02-13T10:25:51;97676.06;;;4.37;100.00
29169;BME280;16219;42.864;23.360;2023-02-13T10:28:28;97667.34;;;4.43;100.00
29169;BME280;16219;42.864;23.360;2023-02-13T10:31:02;97649.88;;;4.56;100.00
29169;BME280;16219;42.864;23.360;2023-02-13T10:33:35;97654.09;;;4.57;100.00
29169;BME280;16219;42.864;23.360;2023-02-13T10:36:11;97640.78;;;4.58;100.00
29169;BME280;16219;42.864;23.360;2023-02-13T10:38:43;97643.06;;;4.78;100.00
29169;BME280;16219;42.864;23.360;2023-02-13T10:41:23;97635.56;;;4.82;100.00
29169;BME280;16219;42.864;23.360;2023-02-13T10:44:02;97637.50;;;4.86;100.00
29169;BME280;16219;42.864;23.360;2023-02-13T10:46:43;97630.00;;;4.78;100.00
29169;BME280;16219;42.864;23.360;2023-02-13T10:49:30;97627.84;;;4.87;100.00
29169;BME280;16219;42.864;23.360;2023-02-13T10:52:10;97620.56;;;4.89;100.00
29169;BME280;16219;42.864;23.360;2023-02-13T10:54:55;97616.94;;;5.01;100.00
29169;BME280;16219;42.864;23.360;2023-02-13T10:57:29;97612.59;;;4.95;100.00
29169;BME280;16219;42.864;23.360;2023-02-13T11:00:07;97620.09;;;5.15;100.00
29169;BME280;16219;42.864;23.360;2023-02-13T11:02:36;97614.41;;;5.18;100.00
29169;BME280;16219;42.864;23.360;2023-02-13T11:05:14;97599.94;;;5.16;100.00
29169;BME280;16219;42.864;23.360;2023-02-13T11:07:43;97606.06;;;5.33;100.00
29169;BME280;16219;42.864;23.360;2023-02-13T11:10:27;97585.97;;;5.50;100.00
29169;BME280;16219;42.864;23.360;2023-02-13T11:13:14;97584.91;;;5.63;100.00
29169;BME280;16219;42.864;23.360;2023-02-13T11:15:41;97593.75;;;5.74;100.00
29169;BME280;16219;42.864;23.360;2023-02-13T11:18:13;97585.09;;;5.90;100.00
29169;BME280;16219;42.864;23.360;2023-02-13T11:20:46;97551.47;;;5.82;100.00
29169;BME280;16219;42.864;23.360;2023-02-13T11:23:32;97578.19;;;6.13;100.00
29169;BME280;16219;42.864;23.360;2023-02-13T11:26:02;97564.38;;;6.17;100.00
29169;BME280;16219;42.864;23.360;2023-02-13T11:28:36;97567.31;;;6.21;100.00
29169;BME280;16219;42.864;23.360;2023-02-13T11:31:12;97551.81;;;6.19;100.00
29169;BME280;16219;42.864;23.360;2023-02-13T11:33:40;97553.25;;;6.27;100.00
29169;BME280;16219;42.864;23.360;2023-02-13T11:36:13;97548.97;;;6.21;100.00
29169;BME280;16219;42.864;23.360;2023-02-13T11:38:40;97510.47;;;6.05;100.00
29169;BME280;16219;42.864;23.360;2023-02-13T11:41:09;97533.41;;;6.31;100.00
29169;BME280;16219;42.864;23.360;2023-02-13T11:43:43;97530.25;;;6.29;100.00
29169;BME280;16219;42.864;23.360;2023-02-13T11:46:17;97527.69;;;6.34;100.00
29169;BME280;16219;42.864;23.360;2023-02-13T11:48:56;97517.91;;;6.46;100.00
29169;BME280;16219;42.864;23.360;2023-02-13T11:51:41;97521.91;;;6.54;96.11
29169;BME280;16219;42.864;23.360;2023-02-13T11:54:23;97521.63;;;6.50;99.66
29169;BME280;16219;42.864;23.360;2023-02-13T11:56:53;97521.81;;;6.10;76.72
29169;BME280;16219;42.864;23.360;2023-02-13T11:59:22;97499.56;;;5.79;72.28
29169;BME280;16219;42.864;23.360;2023-02-13T12:02:01;97515.09;;;5.86;65.51
29169;BME280;16219;42.864;23.360;2023-02-13T12:04:29;97511.22;;;5.88;68.43
29169;BME280;16219;42.864;23.360;2023-02-13T12:07:00;97491.22;;;5.82;69.23
29169;BME280;16219;42.864;23.360;2023-02-13T12:09:28;97505.59;;;5.80;69.24
29169;BME280;16219;42.864;23.360;2023-02-13T12:11:59;97501.97;;;5.69;69.71
29169;BME280;16219;42.864;23.360;2023-02-13T12:14:31;97494.25;;;5.74;76.45
29169;BME280;16219;42.864;23.360;2023-02-13T12:17:03;97494.56;;;5.94;75.18
29169;BME280;16219;42.864;23.360;2023-02-13T12:19:37;97495.84;;;6.09;68.38
29169;BME280;16219;42.864;23.360;2023-02-13T12:22:29;97486.88;;;6.21;70.38
29169;BME280;16219;42.864;23.360;2023-02-13T12:25:39;97490.34;;;6.27;62.03
29169;BME280;16219;42.864;23.360;2023-02-13T12:28:14;97478.75;;;6.23;59.30
29169;BME280;16219;42.864;23.360;2023-02-13T12:30:55;97474.69;;;6.32;60.74
29169;BME280;16219;42.864;23.360;2023-02-13T12:33:40;97464.22;;;6.32;58.95
29169;BME280;16219;42.864;23.360;2023-02-13T12:36:16;97471.72;;;6.45;59.43
29169;BME280;16219;42.864;23.360;2023-02-13T12:38:59;97467.00;;;6.42;59.87
29169;BME280;16219;42.864;23.360;2023-02-13T12:41:37;97467.31;;;6.46;60.93
29169;BME280;16219;42.864;23.360;2023-02-13T12:44:22;97472.34;;;6.53;61.16
29169;BME280;16219;42.864;23.360;2023-02-13T12:47:03;97464.31;;;6.59;60.29
29169;BME280;16219;42.864;23.360;2023-02-13T12:49:54;97464.06;;;6.61;59.86
29169;BME280;16219;42.864;23.360;2023-02-13T12:52:35;97442.97;;;6.72;61.77
29169;BME280;16219;42.864;23.360;2023-02-13T12:55:30;97450.16;;;6.82;59.31
29169;BME280;16219;42.864;23.360;2023-02-13T12:58:25;97447.06;;;6.85;59.61
29169;BME280;16219;42.864;23.360;2023-02-13T13:01:06;97434.53;;;6.92;59.57
29169;BME280;16219;42.864;23.360;2023-02-13T13:03:45;97437.22;;;6.97;57.24
29169;BME280;16219;42.864;23.360;2023-02-13T13:06:37;97433.00;;;6.96;56.26
29169;BME280;16219;42.864;23.360;2023-02-13T13:09:28;97429.75;;;6.84;55.21
29169;BME280;16219;42.864;23.360;2023-02-13T13:14:56;97420.41;;;6.71;55.91
29169;BME280;16219;42.864;23.360;2023-02-13T13:17:39;97405.75;;;6.54;56.47